METAR Data
IDs: Format: Raw Decoded Include TAF

Data at: 0528 UTC 20 Oct 2018

PAPN 200456Z AUTO 27016KT 10SM BKN033 07/02 A2945 RMK AO2 SLPNO T00720017
PAPN 200421Z AUTO 26019KT 10SM BKN031 BKN060 07/02 A2943 RMK AO2
PAPN 200356Z AUTO 26017G23KT 10SM BKN029 OVC036 07/03 A2942 RMK AO2 PK WND 27026/0304 RAB33E56 SLPNO P0000 T00720028
PAPN 200351Z AUTO 26018G23KT 10SM -RA BKN029 BKN036 OVC050 07/03 A2942 RMK AO2 PK WND 27026/0304 RAB33 P0000
PAPN 200318Z AUTO 27019G25KT 10SM SCT023 BKN034 BKN055 07/04 A2941 RMK AO2 PK WND 27026/0304
PAPN 200256Z AUTO 27016G22KT 10SM BKN023 OVC037 07/04 A2941 RMK AO2 RAB35E45 SLPNO P0000 6//// T00720039
PAPN 200220Z AUTO 27021KT 10SM BKN024 BKN029 08/04 A2940 RMK AO2
PAPN 200203Z AUTO 27016G22KT 10SM FEW023 SCT027 SCT039 08/03 A2939 RMK AO2
PAPN 200156Z AUTO 28017G22KT 10SM BKN023 BKN031 BKN039 08/04 A2939 RMK AO2 SLPNO T00780039
PAPN 192356Z AUTO 28018G23KT 10SM FEW030 SCT037 SCT046 09/03 A2937 RMK AO2 PK WND 26027/2332 SLP948 60002 T00890033 10089 20067 51006
PAPN 192256Z AUTO 28020G25KT 10SM FEW025 BKN039 OVC048 09/04 A2937 RMK AO2 PK WND 28027/2244 SLP947 T00890044
PAPN 192245Z AUTO 28020G27KT 10SM FEW025 OVC038 08/04 A2936 RMK AO2 PK WND 28027/2244
PAPN 192231Z AUTO 27016G21KT 10SM BKN025 OVC033 08/04 A2936 RMK AO2
PAPN 192156Z AUTO 28018G25KT 10SM BKN030 OVC039 08/05 A2936 RMK AO2 PK WND 29026/2146 RAB24E44 SLP946 P0000 T00780050
PAPN 192148Z AUTO 28022G26KT 10SM FEW018 BKN030 OVC037 08/05 A2936 RMK AO2 PK WND 29026/2146 RAB24E44 P0000
PAPN 192121Z AUTO 28018G23KT 9SM FEW014 BKN021 OVC043 08/06 A2936 RMK AO2
PAPN 192056Z AUTO 29016KT 10SM FEW019 08/05 A2935 RMK AO2 RAE1958 SLP942 P0000 60002 T00830050 50004
PAPN 192004Z AUTO 29015KT 10SM FEW018 BKN032 OVC040 08/05 A2936 RMK AO2 RAE1958 P0000
PAPN 191956Z AUTO 30017KT 10SM -RA FEW018 BKN023 OVC036 08/05 A2936 RMK AO2 RAB17 SLP944 P0002 T00780050
PAPN 191927Z AUTO 30018KT 10SM -RA BKN016 BKN023 OVC045 08/06 A2935 RMK AO2 RAB17 P0000
PAPN 191918Z AUTO 30016G21KT 10SM -RA BKN014 BKN020 OVC045 08/06 A2935 RMK AO2 RAB17 P0000
PAPN 191909Z AUTO 29017KT 10SM SCT014 BKN019 OVC045 08/06 A2935 RMK AO2
PAPN 191856Z AUTO 29018G22KT 10SM SCT014 BKN033 OVC065 08/06 A2934 RMK AO2 RAB28E38 SLP938 P0000 T00780061
PAPN 191756Z AUTO 30004KT 10SM SCT020 SCT060 BKN080 06/05 A2934 RMK AO2 RAB04E18 SLP938 P0000 60000 T00610050 10067 20017 56009
PAPN 191656Z AUTO 32003KT 10SM SCT041 BKN050 OVC070 06/04 A2934 RMK AO2 SLP938 T00610044
PAPN 191556Z AUTO 33003KT 10SM BKN042 OVC050 05/03 A2935 RMK AO2 SLP940 T00500033
PAPN 191456Z AUTO 32003KT 10SM SCT018 OVC055 04/03 A2937 RMK AO2 SLP947 T00390033 56021
PAPN 191448Z AUTO 00000KT 10SM FEW013 BKN018 OVC055 04/03 A2937 RMK AO2
PAPN 191356Z AUTO 35003KT 10SM SCT055 03/03 A2938 RMK AO2 SLP952 T00280028
PAPN 191256Z AUTO 31003KT 10SM CLR 03/03 A2941 RMK AO2 SLP960 T00330033
PAPN 191156Z AUTO 05004KT 10SM CLR 02/02 A2943 RMK AO2 SLP968 T00170017 10067 20017 56020 FZRANO
PAPN 191104Z AUTO 02005KT CLR 02/02 A2945 RMK AO2 PWINO FZRANO $
PAPN 191056Z AUTO 03004KT 1 1/2SM BR CLR 02/02 A2945 RMK AO2 SLP974 T00220017 FZRANO
PAPN 191050Z AUTO 04004KT 1 1/4SM BR CLR 02/02 A2945 RMK AO2 FZRANO
PAPN 191046Z AUTO 04004KT 1SM BR VV004 02/02 A2945 RMK AO2 FZRANO
PAPN 191038Z AUTO 03006KT 2 1/2SM BR FEW004 02/02 A2945 RMK AO2 FZRANO
PAPN 190956Z AUTO 25003KT 10SM SCT048 BKN070 06/06 A2946 RMK AO2 SLP979 T00560056
PAPN 190856Z AUTO 00000KT 10SM CLR 04/03 A2949 RMK AO2 SLP988 T00390033 58017
PAPN 190756Z AUTO 20003KT 10SM BKN048 07/05 A2951 RMK AO2 SLP994 T00670050 401170039
PAPN 190656Z AUTO 12005KT 10SM OVC036 06/04 A2952 RMK AO2 SLP999 T00560044
PAPN 190556Z AUTO 10007KT 10SM OVC032 05/04 A2954 RMK AO2 SLP005 T00500044 10117 20050 58008
PAPN 190456Z AUTO 11006KT 10SM OVC036 06/05 A2955 RMK AO2 SLP008 T00610050
PAPN 190356Z AUTO 10007KT 10SM FEW060 07/05 A2955 RMK AO2 SLP010 T00670050
PAPN 190256Z AUTO 10008KT 10SM BKN060 08/06 A2956 RMK AO2 SLP013 T00830056 57009
PAPN 190156Z AUTO 10007KT 10SM SCT040 BKN055 OVC085 11/05 A2957 RMK AO2 SLP016 T01060050
PAPN 190056Z AUTO 15006KT 10SM OVC046 11/04 A2958 RMK AO2 SLP018 T01110044
PAPN 182356Z AUTO 14009KT 10SM OVC046 11/04 A2959 RMK AO2 SLP021 T01110039 10117 20044 58011
PAPN 182256Z AUTO 15007KT 10SM FEW045 OVC075 12/04 A2961 RMK AO2 SLP027 T01170044
PAPN 182156Z AUTO 14010KT 10SM SCT070 11/04 A2961 RMK AO2 SLP030 T01110044
PAPN 182056Z AUTO 13009KT 10SM CLR 11/05 A2962 RMK AO2 SLP033 T01060050 51005
PAPN 181956Z AUTO 12008KT 10SM FEW050 09/06 A2962 RMK AO2 SLP033 T00940056
PAPN 181856Z AUTO 11007KT 10SM CLR 07/04 A2962 RMK AO2 SLP031 T00670044
PAPN 181756Z AUTO 12007KT 10SM CLR 05/03 A2961 RMK AO2 SLP028 T00500033 10067 20039 51006